Weather at Clarence A. Bain Airport

Public forecast

Using degrees Celsius for public forecast. Weather courtesy of forecast.io.

Closest aviation weather report (METAR) to Clarence A. Bain Airport

Closest report is Lynden Pindling International Airport, 46.7 nm (86.4 km) NNE. Retrieved 2021/06/20 03:00 UTC (2 minutes ago):

MYNN 200300Z 15011KT 9999 SCT018 SCT030 BKN048 29/25 A3012

Closest aviation forecast (TAF) to Clarence A. Bain Airport

Closest forecast is Lynden Pindling International Airport, 46.7 nm (86.4 km) NNE. Retrieved 2021-06-20 00:21 UTC (3 hours ago):

TAF MYNN 192200Z 2000/2024 1010KT 9999 SCT020 SCT120 BKN250